createdAt,value
2018-06-12T00:00:38.550Z,101104.50
2018-06-12T00:03:07.338Z,101102.28
2018-06-12T00:05:36.004Z,101103.17
2018-06-12T00:08:04.716Z,101100.07
2018-06-12T00:10:33.263Z,101107.16
2018-06-12T00:13:01.887Z,101105.38
2018-06-12T00:15:30.542Z,101101.37
2018-06-12T00:17:59.745Z,101102.27
2018-06-12T00:20:28.338Z,101105.80
2018-06-12T00:22:57.580Z,101097.79
2018-06-12T00:25:26.150Z,101092.02
2018-06-12T00:27:54.796Z,101098.66
2018-06-12T00:30:23.458Z,101097.33
2018-06-12T00:32:52.247Z,101084.48
2018-06-12T00:35:20.903Z,101084.47
2018-06-12T00:37:49.553Z,101089.77
2018-06-12T00:40:18.189Z,101098.13
2018-06-12T00:42:46.874Z,101095.91
2018-06-12T00:45:15.504Z,101100.77
2018-06-12T00:47:44.086Z,101100.31
2018-06-12T00:50:12.650Z,101098.53
2018-06-12T00:52:43.405Z,101099.83
2018-06-12T00:55:12.061Z,101108.66
2018-06-12T00:57:40.633Z,101112.20
2018-06-12T01:00:10.185Z,101109.98
2018-06-12T01:02:38.824Z,101113.94
2018-06-12T01:05:06.993Z,101105.97
2018-06-12T01:07:35.620Z,101112.61
2018-06-12T01:10:04.281Z,101113.04
2018-06-12T01:12:33.710Z,101117.02
2018-06-12T01:15:02.310Z,101116.56
2018-06-12T01:17:30.883Z,101123.19
2018-06-12T01:19:59.477Z,101117.42
2018-06-12T01:22:31.269Z,101122.28
2018-06-12T01:24:59.934Z,101123.13
2018-06-12T01:27:28.613Z,101122.67
2018-06-12T01:29:57.161Z,101117.80
2018-06-12T01:32:25.769Z,101116.91
2018-06-12T01:34:54.328Z,101123.97
2018-06-12T01:37:22.964Z,101127.07
2018-06-12T01:39:51.620Z,101121.30
2018-06-12T01:42:20.217Z,101112.87
2018-06-12T01:44:48.902Z,101115.97
2018-06-12T01:47:17.688Z,101119.47
2018-06-12T01:49:46.234Z,101119.44
2018-06-12T01:52:14.781Z,101119.44
2018-06-12T01:54:43.654Z,101117.22
2018-06-12T01:57:12.235Z,101123.38
2018-06-12T01:59:40.812Z,101110.12
2018-06-12T02:02:09.402Z,101123.36
2018-06-12T02:04:39.134Z,101126.89
2018-06-12T02:07:07.847Z,101122.90
2018-06-12T02:09:36.944Z,101124.20
2018-06-12T02:12:05.510Z,101128.97
2018-06-12T02:14:34.873Z,101124.55
2018-06-12T02:17:03.579Z,101123.61
2018-06-12T02:19:32.125Z,101119.62
2018-06-12T02:22:00.792Z,101115.21
2018-06-12T02:24:29.349Z,101117.03
2018-06-12T02:26:58.005Z,101113.51
2018-06-12T02:29:26.620Z,101117.98
2018-06-12T02:31:55.273Z,101121.95
2018-06-12T02:34:23.861Z,101124.60
2018-06-12T02:36:52.429Z,101122.33
2018-06-12T02:39:21.053Z,101123.61
2018-06-12T02:41:49.704Z,101120.63
2018-06-12T02:44:18.312Z,101126.31
2018-06-12T02:46:47.247Z,101126.23
2018-06-12T02:49:15.894Z,101127.09
2018-06-12T02:51:44.568Z,101120.88
2018-06-12T02:54:13.140Z,101121.76
2018-06-12T02:56:41.769Z,101115.95
2018-06-12T02:59:10.406Z,101117.22
2018-06-12T03:01:39.019Z,101113.66
2018-06-12T03:04:07.701Z,101118.97
2018-06-12T03:06:36.278Z,101123.84
2018-06-12T03:09:07.582Z,101126.94
2018-06-12T03:11:36.142Z,101130.48
2018-06-12T03:14:04.786Z,101128.29
2018-06-12T03:16:33.336Z,101124.73
2018-06-12T03:19:02.149Z,101122.47
2018-06-12T03:21:31.477Z,101120.69
2018-06-12T03:24:00.079Z,101126.46
2018-06-12T03:26:28.732Z,101132.19
2018-06-12T03:28:57.308Z,101125.94
2018-06-12T03:31:26.600Z,101126.83
2018-06-12T03:33:55.206Z,101131.69
2018-06-12T03:36:27.770Z,101128.58
2018-06-12T03:38:56.366Z,101131.66
2018-06-12T03:41:25.074Z,101128.53
2018-06-12T03:43:53.742Z,101127.67
2018-06-12T03:46:23.092Z,101127.69
2018-06-12T03:48:52.011Z,101130.32
2018-06-12T03:51:20.729Z,101128.08
2018-06-12T03:53:49.275Z,101122.38
2018-06-12T03:56:17.808Z,101123.24
2018-06-12T03:58:46.475Z,101125.95
2018-06-12T04:01:15.053Z,101129.08
2018-06-12T04:06:17.331Z,101127.76
2018-06-12T04:08:46.077Z,101133.09
2018-06-12T04:11:14.680Z,101137.97
2018-06-12T04:13:43.622Z,101133.98
2018-06-12T04:16:12.184Z,101138.89
2018-06-12T04:18:40.798Z,101138.00
2018-06-12T04:21:09.465Z,101142.84
2018-06-12T04:23:40.295Z,101131.79
2018-06-12T04:26:09.093Z,101136.23
2018-06-12T04:28:37.726Z,101137.55
2018-06-12T04:31:06.367Z,101139.77
2018-06-12T04:33:34.948Z,101138.41
2018-06-12T04:36:03.534Z,101138.37
2018-06-12T04:38:32.253Z,101134.84
2018-06-12T04:41:01.006Z,101137.97
2018-06-12T04:43:29.693Z,101142.77
2018-06-12T04:45:58.371Z,101140.59
2018-06-12T04:48:26.937Z,101146.38
2018-06-12T04:50:55.537Z,101146.84
2018-06-12T04:53:24.143Z,101149.05
2018-06-12T04:55:52.774Z,101145.03
2018-06-12T04:58:21.398Z,101144.53
2018-06-12T05:00:49.964Z,101149.02
2018-06-12T05:03:19.347Z,101150.31
2018-06-12T05:06:01.103Z,101149.02
2018-06-12T05:08:29.665Z,101149.95
2018-06-12T05:10:58.211Z,101151.72
2018-06-12T05:13:26.769Z,101154.80
2018-06-12T05:15:55.400Z,101161.02
2018-06-12T05:18:23.965Z,101165.05
2018-06-12T05:20:52.574Z,101158.87
2018-06-12T05:23:21.181Z,101162.89
2018-06-12T05:25:49.795Z,101164.71
2018-06-12T05:28:18.363Z,101162.03
2018-06-12T05:30:47.723Z,101168.70
2018-06-12T05:33:16.321Z,101171.98
2018-06-12T05:35:44.898Z,101172.06
2018-06-12T05:38:13.479Z,101179.16
2018-06-12T05:40:42.032Z,101188.45
2018-06-12T05:43:10.862Z,101191.97
2018-06-12T05:45:39.569Z,101190.23
2018-06-12T05:48:08.637Z,101191.66
2018-06-12T05:50:37.241Z,101196.55
2018-06-12T05:53:05.845Z,101201.45
2018-06-12T05:55:34.509Z,101199.70
2018-06-12T05:58:03.327Z,101204.98
2018-06-12T06:00:32.137Z,101202.81
2018-06-12T06:03:00.813Z,101201.58
2018-06-12T06:05:30.221Z,101199.40
2018-06-12T06:08:00.089Z,101202.13
2018-06-12T06:10:28.781Z,101206.53
2018-06-12T06:12:57.481Z,101207.44
2018-06-12T06:15:26.062Z,101203.85
2018-06-12T06:17:54.940Z,101209.59
2018-06-12T06:20:24.368Z,101206.05
2018-06-12T06:22:53.552Z,101209.63
2018-06-12T06:25:22.129Z,101214.12
2018-06-12T06:27:50.725Z,101209.26
2018-06-12T06:30:19.372Z,101215.50
2018-06-12T06:32:47.910Z,101216.89
2018-06-12T06:35:16.592Z,101212.50
2018-06-12T06:37:45.298Z,101214.22
2018-06-12T06:40:13.921Z,101209.84
2018-06-12T06:42:42.505Z,101215.67
2018-06-12T06:45:11.249Z,101209.05
2018-06-12T06:47:39.911Z,101213.94
2018-06-12T06:50:08.549Z,101206.87
2018-06-12T06:52:37.144Z,101205.13
2018-06-12T06:55:05.954Z,101208.23
2018-06-12T06:57:34.642Z,101202.44
2018-06-12T07:00:03.491Z,101204.62
2018-06-12T07:02:32.183Z,101207.22
2018-06-12T07:05:01.045Z,101211.19
2018-06-12T07:07:29.598Z,101209.41
2018-06-12T07:09:58.324Z,101207.63
2018-06-12T07:12:26.885Z,101206.72
2018-06-12T07:14:55.495Z,101211.58
2018-06-12T07:17:24.061Z,101215.16
2018-06-12T07:19:52.713Z,101215.23
2018-06-12T07:22:21.389Z,101212.15
2018-06-12T07:24:50.081Z,101219.25
2018-06-12T07:27:18.864Z,101211.73
2018-06-12T07:29:48.214Z,101213.55
2018-06-12T07:32:16.851Z,101216.69
2018-06-12T07:34:45.609Z,101206.95
2018-06-12T07:37:14.257Z,101208.77
2018-06-12T07:39:42.930Z,101214.53
2018-06-12T07:42:11.602Z,101218.52
2018-06-12T07:44:40.198Z,101220.30
2018-06-12T07:47:09.621Z,101212.75
2018-06-12T07:49:38.354Z,101216.28
2018-06-12T07:52:07.533Z,101214.06
2018-06-12T07:54:36.146Z,101213.62
2018-06-12T07:57:04.981Z,101222.51
2018-06-12T07:59:34.579Z,101219.41
2018-06-12T08:02:03.251Z,101216.72
2018-06-12T08:04:31.995Z,101218.05
2018-06-12T08:07:00.660Z,101216.73
2018-06-12T08:09:29.206Z,101222.06
2018-06-12T08:11:58.010Z,101221.59
2018-06-12T08:14:26.605Z,101221.61
2018-06-12T08:16:55.229Z,101225.16
2018-06-12T08:19:23.971Z,101224.67
2018-06-12T08:21:53.225Z,101216.66
2018-06-12T08:24:21.893Z,101225.92
2018-06-12T08:26:50.513Z,101209.91
2018-06-12T08:29:19.171Z,101223.73
2018-06-12T08:31:47.804Z,101219.73
2018-06-12T08:34:16.512Z,101217.91
2018-06-12T08:36:45.169Z,101215.66
2018-06-12T08:39:13.940Z,101215.69
2018-06-12T08:41:42.639Z,101218.39
2018-06-12T08:44:11.316Z,101229.07
2018-06-12T08:46:40.008Z,101224.13
2018-06-12T08:49:08.588Z,101224.43
2018-06-12T08:51:37.152Z,101221.67
2018-06-12T08:54:05.747Z,101229.60
2018-06-12T08:56:34.363Z,101232.78
2018-06-12T08:59:02.945Z,101230.15
2018-06-12T09:01:31.605Z,101227.90
2018-06-12T09:04:00.209Z,101230.03
2018-06-12T09:06:28.888Z,101229.16
2018-06-12T09:08:57.613Z,101232.30
2018-06-12T09:11:26.370Z,101237.20
2018-06-12T09:13:54.949Z,101238.08
2018-06-12T09:16:23.624Z,101236.72
2018-06-12T09:18:52.928Z,101243.82
2018-06-12T09:21:21.534Z,101243.84
2018-06-12T09:26:20.768Z,101242.80
2018-06-12T09:28:49.487Z,101241.83
2018-06-12T09:31:18.121Z,101243.02
2018-06-12T09:33:46.653Z,101259.48
2018-06-12T09:36:20.628Z,101252.52
2018-06-12T09:38:49.477Z,101256.50
2018-06-12T09:41:18.674Z,101246.20
2018-06-12T09:43:48.086Z,101252.75
2018-06-12T09:46:17.400Z,101255.84
2018-06-12T09:48:46.060Z,101258.73
2018-06-12T09:51:14.628Z,101258.78
2018-06-12T09:53:44.335Z,101255.63
2018-06-12T09:56:12.978Z,101261.00
2018-06-12T09:58:41.547Z,101264.52
2018-06-12T10:01:15.440Z,101267.61
2018-06-12T10:03:44.052Z,101264.91
2018-06-12T10:06:12.649Z,101260.41
2018-06-12T10:08:41.492Z,101265.26
2018-06-12T10:11:10.095Z,101264.42
2018-06-12T10:13:38.725Z,101268.09
2018-06-12T10:16:07.571Z,101267.84
2018-06-12T10:18:36.266Z,101262.12
2018-06-12T10:21:04.958Z,101266.54
2018-06-12T10:23:33.623Z,101269.17
2018-06-12T10:26:02.206Z,101268.36
2018-06-12T10:28:30.803Z,101267.50
2018-06-12T10:30:59.718Z,101268.86
2018-06-12T10:33:28.369Z,101276.94
2018-06-12T10:35:57.155Z,101277.84
2018-06-12T10:38:25.775Z,101278.29
2018-06-12T10:40:54.427Z,101276.97
2018-06-12T10:43:23.289Z,101273.85
2018-06-12T10:45:51.920Z,101277.46
2018-06-12T10:48:20.592Z,101276.58
2018-06-12T10:50:52.586Z,101279.25
2018-06-12T10:53:21.220Z,101278.38
2018-06-12T10:55:49.870Z,101276.60
2018-06-12T10:58:18.514Z,101277.95
2018-06-12T11:00:47.069Z,101275.27
2018-06-12T11:03:15.649Z,101275.72
2018-06-12T11:05:44.368Z,101282.39
2018-06-12T11:08:12.957Z,101277.50
2018-06-12T11:10:41.670Z,101273.47
2018-06-12T11:13:10.376Z,101271.27
2018-06-12T11:15:39.010Z,101274.80
2018-06-12T11:18:07.685Z,101273.03
2018-06-12T11:20:36.278Z,101273.45
2018-06-12T11:23:05.033Z,101276.09
2018-06-12T11:25:33.753Z,101281.37
2018-06-12T11:28:02.416Z,101279.09
2018-06-12T11:30:31.638Z,101275.84
2018-06-12T11:33:00.261Z,101279.83
2018-06-12T11:35:28.920Z,101275.23
2018-06-12T11:37:59.967Z,101279.65
2018-06-12T11:40:28.637Z,101279.14
2018-06-12T11:42:57.170Z,101279.50
2018-06-12T11:45:25.739Z,101275.99
2018-06-12T11:47:54.400Z,101279.11
2018-06-12T11:50:23.115Z,101276.03
2018-06-12T11:52:51.765Z,101271.09
2018-06-12T11:55:20.334Z,101276.75
2018-06-12T11:57:48.896Z,101280.38
2018-06-12T12:00:17.492Z,101276.92
2018-06-12T12:02:46.091Z,101281.77
2018-06-12T12:05:14.723Z,101285.30
2018-06-12T12:07:43.285Z,101273.81
2018-06-12T12:10:11.956Z,101274.70
2018-06-12T12:12:40.800Z,101280.52
2018-06-12T12:15:09.524Z,101274.70
2018-06-12T12:17:38.210Z,101275.55
2018-06-12T12:20:06.831Z,101275.09
2018-06-12T12:22:35.372Z,101275.91
2018-06-12T12:25:05.057Z,101281.59
2018-06-12T12:27:33.636Z,101275.42
2018-06-12T12:30:02.257Z,101273.72
2018-06-12T12:32:30.850Z,101274.31
2018-06-12T12:34:59.448Z,101274.77
2018-06-12T12:37:28.471Z,101277.07
2018-06-12T12:39:57.119Z,101273.11
2018-06-12T12:42:25.685Z,101272.67
2018-06-12T12:44:54.379Z,101270.48
2018-06-12T12:47:23.149Z,101271.39
2018-06-12T12:49:52.620Z,101274.95
2018-06-12T12:52:21.258Z,101267.40
2018-06-12T12:54:49.830Z,101267.86
2018-06-12T12:57:18.428Z,101266.47
2018-06-12T12:59:47.001Z,101272.31
2018-06-12T13:02:16.030Z,101271.85
2018-06-12T13:04:44.601Z,101265.67
2018-06-12T13:07:13.653Z,101268.84
2018-06-12T13:09:42.249Z,101271.11
2018-06-12T13:12:10.845Z,101264.86
2018-06-12T13:14:39.761Z,101265.31
2018-06-12T13:17:30.040Z,101271.51
2018-06-12T13:19:58.728Z,101271.91
2018-06-12T13:22:27.357Z,101267.04
2018-06-12T13:24:57.342Z,101263.52
2018-06-12T13:27:26.014Z,101269.77
2018-06-12T13:29:54.755Z,101266.61
2018-06-12T13:32:35.922Z,101270.59
2018-06-12T13:35:04.613Z,101275.47
2018-06-12T13:37:33.822Z,101273.61
2018-06-12T13:40:02.615Z,101262.91
2018-06-12T13:42:39.767Z,101259.78
2018-06-12T13:45:08.676Z,101262.88
2018-06-12T13:47:37.297Z,101255.69
2018-06-12T13:50:05.965Z,101255.19
2018-06-12T13:52:35.355Z,101256.55
2018-06-12T13:55:03.944Z,101255.22
2018-06-12T13:57:32.574Z,101257.39
2018-06-12T14:00:01.254Z,101262.33
2018-06-12T14:02:30.868Z,101260.02
2018-06-12T14:04:59.470Z,101253.33
2018-06-12T14:07:28.154Z,101249.59
2018-06-12T14:09:56.837Z,101245.86
2018-06-12T14:12:25.497Z,101253.37
2018-06-12T14:14:54.072Z,101254.56
2018-06-12T14:17:22.620Z,101238.31
2018-06-12T14:19:51.264Z,101235.53
2018-06-12T14:22:19.948Z,101234.79
2018-06-12T14:24:48.637Z,101233.55
2018-06-12T14:27:17.836Z,101236.86
2018-06-12T14:29:46.427Z,101229.78
2018-06-12T14:32:15.160Z,101229.65
2018-06-12T14:34:43.893Z,101237.18
2018-06-12T14:37:12.571Z,101230.99
2018-06-12T14:39:41.142Z,101225.64
2018-06-12T14:42:10.535Z,101232.63
2018-06-12T14:44:41.066Z,101227.75
2018-06-12T14:47:10.510Z,101224.19
2018-06-12T14:49:39.198Z,101222.48
2018-06-12T14:52:08.187Z,101221.88
2018-06-12T14:54:36.885Z,101222.85
2018-06-12T14:57:05.741Z,101218.52
2018-06-12T14:59:51.437Z,101221.81
2018-06-12T15:02:20.395Z,101221.42
2018-06-12T15:04:49.021Z,101220.99
2018-06-12T15:07:18.214Z,101217.77
2018-06-12T15:09:46.899Z,101221.25
2018-06-12T15:12:15.582Z,101218.86
2018-06-12T15:14:44.156Z,101213.13
2018-06-12T15:17:12.896Z,101217.72
2018-06-12T15:19:41.624Z,101227.63
2018-06-12T15:22:10.754Z,101227.88
2018-06-12T15:24:39.419Z,101229.91
2018-06-12T15:27:08.028Z,101231.92
2018-06-12T15:29:37.459Z,101230.73
2018-06-12T15:32:13.695Z,101226.02
2018-06-12T15:34:43.482Z,101219.81
2018-06-12T15:37:41.240Z,101229.59
2018-06-12T15:40:09.828Z,101223.72
2018-06-12T15:42:38.487Z,101226.50
2018-06-12T15:45:07.151Z,101225.39
2018-06-12T15:47:35.793Z,101225.09
2018-06-12T15:50:04.537Z,101225.16
2018-06-12T15:52:33.108Z,101219.83
2018-06-12T15:55:01.751Z,101217.61
2018-06-12T15:57:30.500Z,101227.00
2018-06-12T15:59:59.148Z,101228.03
2018-06-12T16:02:27.841Z,101227.17
2018-06-12T16:04:56.506Z,101234.78
2018-06-12T16:07:25.150Z,101236.55
2018-06-12T16:09:53.893Z,101231.23
2018-06-12T16:12:37.119Z,101233.05
2018-06-12T16:15:05.789Z,101237.61
2018-06-12T16:17:34.444Z,101230.89
2018-06-12T16:20:03.239Z,101226.92
2018-06-12T16:22:32.702Z,101232.77
2018-06-12T16:25:01.296Z,101235.03
2018-06-12T16:27:30.797Z,101235.95
2018-06-12T16:30:00.342Z,101239.55
2018-06-12T16:32:29.045Z,101239.11
2018-06-12T16:35:00.762Z,101230.18
2018-06-12T16:37:29.442Z,101238.66
2018-06-12T16:39:58.089Z,101233.34
2018-06-12T16:42:26.770Z,101235.55
2018-06-12T16:44:57.651Z,101234.22
2018-06-12T16:47:26.337Z,101236.94
2018-06-12T16:49:56.563Z,101244.55
2018-06-12T16:52:25.187Z,101240.57
2018-06-12T16:54:53.778Z,101244.15
2018-06-12T16:57:22.626Z,101244.63
2018-06-12T16:59:51.481Z,101244.20
2018-06-12T17:02:20.147Z,101248.22
2018-06-12T17:04:48.904Z,101244.22
2018-06-12T17:07:17.529Z,101242.45
2018-06-12T17:09:46.225Z,101246.47
2018-06-12T17:12:17.317Z,101238.03
2018-06-12T17:14:46.167Z,101246.02
2018-06-12T17:17:20.068Z,101242.91
2018-06-12T17:19:48.683Z,101242.02
2018-06-12T17:22:27.571Z,101240.69
2018-06-12T17:25:03.980Z,101245.13
2018-06-12T17:27:34.501Z,101245.58
2018-06-12T17:30:03.166Z,101250.03
2018-06-12T17:32:31.817Z,101241.61
2018-06-12T17:35:00.517Z,101249.12
2018-06-12T17:37:29.359Z,101252.24
2018-06-12T17:39:58.008Z,101252.69
2018-06-12T17:42:26.678Z,101254.47
2018-06-12T17:44:55.390Z,101250.47
2018-06-12T17:47:24.033Z,101260.67
2018-06-12T17:49:52.833Z,101256.68
2018-06-12T17:52:22.033Z,101260.23
2018-06-12T17:54:50.672Z,101257.13
2018-06-12T17:57:19.370Z,101257.13
2018-06-12T17:59:48.004Z,101258.02
2018-06-12T18:02:17.990Z,101254.47
2018-06-12T18:04:50.021Z,101258.47
2018-06-12T18:07:18.586Z,101263.78
2018-06-12T18:09:47.170Z,101262.02
2018-06-12T18:12:24.333Z,101265.56
2018-06-12T18:14:56.661Z,101262.01
2018-06-12T18:17:25.397Z,101264.66
2018-06-12T18:20:12.235Z,101261.95
2018-06-12T18:22:40.901Z,101264.59
2018-06-12T18:25:09.680Z,101261.91
2018-06-12T18:27:38.988Z,101268.56
2018-06-12T18:30:11.543Z,101265.88
2018-06-12T18:32:42.938Z,101272.50
2018-06-12T18:35:13.824Z,101279.58
2018-06-12T18:37:42.902Z,101279.97
2018-06-12T18:40:11.523Z,101284.36
2018-06-12T18:42:40.209Z,101286.08
2018-06-12T18:45:09.120Z,101293.11
2018-06-12T18:47:37.674Z,101298.00
2018-06-12T18:50:06.298Z,101294.88
2018-06-12T18:52:35.292Z,101298.86
2018-06-12T18:55:04.604Z,101305.49
2018-06-12T18:57:33.281Z,101304.56
2018-06-12T19:00:01.866Z,101305.84
2018-06-12T19:02:30.622Z,101309.44
2018-06-12T19:05:20.795Z,101305.84
2018-06-12T19:07:50.094Z,101309.42
2018-06-12T19:10:20.385Z,101312.01
2018-06-12T19:12:50.304Z,101311.51
2018-06-12T19:15:20.482Z,101319.88
2018-06-12T19:18:02.059Z,101321.23
2018-06-12T19:20:39.791Z,101327.00
2018-06-12T19:23:08.472Z,101328.30
2018-06-12T19:25:37.065Z,101331.36
2018-06-12T19:28:05.800Z,101333.58
2018-06-12T19:30:35.096Z,101337.14
2018-06-12T19:33:04.987Z,101335.83
2018-06-12T19:42:58.959Z,101345.48
2018-06-12T19:45:27.691Z,101349.06
2018-06-12T19:47:56.697Z,101355.71
2018-06-12T19:50:27.389Z,101354.84
2018-06-12T19:52:58.165Z,101360.14
2018-06-12T19:55:26.969Z,101365.97
2018-06-12T19:57:55.755Z,101365.55
2018-06-12T20:00:24.552Z,101373.09
2018-06-12T20:02:53.190Z,101379.73
2018-06-12T20:05:21.848Z,101380.17
2018-06-12T23:02:20.192Z,101425.04
2018-06-12T23:04:48.837Z,101432.47
2018-06-12T23:07:17.536Z,101428.32
2018-06-12T23:09:46.195Z,101427.80
2018-06-12T23:12:14.759Z,101430.39
2018-06-12T23:14:43.343Z,101431.66
2018-06-12T23:17:12.046Z,101428.95
2018-06-12T23:19:51.799Z,101431.08
2018-06-12T23:22:20.320Z,101435.84
2018-06-12T23:24:48.955Z,101434.89
2018-06-12T23:27:17.560Z,101443.19
2018-06-12T23:29:46.106Z,101442.23
2018-06-12T23:32:14.701Z,101443.95
2018-06-12T23:34:43.921Z,101436.91
2018-06-12T23:37:12.576Z,101433.81
2018-06-12T23:39:41.356Z,101439.06
2018-06-12T23:42:10.068Z,101439.92
2018-06-12T23:44:38.601Z,101435.47
2018-06-12T23:47:07.242Z,101437.19
2018-06-12T23:49:35.917Z,101439.80
2018-06-12T23:52:04.524Z,101433.55
2018-06-12T23:54:33.085Z,101436.23
2018-06-12T23:57:01.817Z,101432.33
2018-06-12T23:59:30.471Z,101427.97
